Time;durP1;ratioP1;P1;durP2;ratioP2;P2;SDS_P1;SDS_P2;PMS_P1;PMS_P2;Temp;Humidity;BMP_temperature;BMP_pressure;BME280_temperature;BME280_humidity;BME280_pressure;Samples;Min_cycle;Max_cycle;Signal;HPM_P1;HPM_P2
2022/07/20 00:00:28;;;;;;;16.02;3.35;;;;;;;26.75;31.28;101093.50;5292734;28;20126;-78
2022/07/20 00:03:07;;;;;;;12.20;3.17;;;;;;;26.81;30.84;101098.06;5276377;28;20028;-77
2022/07/20 00:05:42;;;;;;;10.02;3.28;;;;;;;26.84;31.36;101104.09;5286585;28;20152;-78
2022/07/20 00:08:13;;;;;;;8.98;3.78;;;;;;;26.55;32.29;101091.44;5272360;28;20474;-77
2022/07/20 00:13:34;;;;;;;7.18;3.50;;;;;;;26.53;32.36;101098.06;5289311;28;20036;-77
2022/07/20 00:16:06;;;;;;;16.30;4.03;;;;;;;26.46;32.57;101098.00;5287047;28;20099;-77
2022/07/20 00:18:37;;;;;;;9.52;3.00;;;;;;;26.50;32.81;101093.88;5257891;28;20028;-78
2022/07/20 00:21:09;;;;;;;8.40;3.15;;;;;;;26.58;31.68;101085.69;5261724;28;20068;-78
2022/07/20 00:23:41;;;;;;;8.82;3.30;;;;;;;26.44;32.47;101097.34;5291781;28;20119;-78
2022/07/20 00:26:12;;;;;;;12.38;3.38;;;;;;;26.46;33.06;101081.88;5291406;28;20390;-77
2022/07/20 00:28:43;;;;;;;8.48;3.40;;;;;;;26.32;33.55;101097.81;5291393;28;20054;-77
2022/07/20 00:31:15;;;;;;;8.25;3.60;;;;;;;26.28;33.04;101088.50;5291222;28;20038;-77
2022/07/20 00:33:48;;;;;;;6.53;2.92;;;;;;;26.33;32.31;101088.75;5274266;28;20032;-77
2022/07/20 00:36:19;;;;;;;10.80;3.30;;;;;;;26.06;34.85;101091.16;5289294;28;20039;-77
2022/07/20 00:38:50;;;;;;;6.32;3.25;;;;;;;26.21;33.55;101122.50;5290516;28;20024;-77
2022/07/20 00:41:22;;;;;;;9.57;3.45;;;;;;;26.20;33.20;101161.91;5290282;28;20065;-77
2022/07/20 00:43:56;;;;;;;13.82;3.38;;;;;;;26.18;32.88;101102.22;5290904;28;20035;-77
2022/07/20 00:46:31;;;;;;;16.52;3.05;;;;;;;26.07;33.44;101105.41;5274339;28;20035;-78
2022/07/20 00:49:04;;;;;;;11.48;3.13;;;;;;;26.06;33.65;101107.25;5291049;28;20084;-78
2022/07/20 00:51:38;;;;;;;9.00;3.72;;;;;;;25.68;35.22;101112.78;5289744;28;20157;-77
2022/07/20 00:54:11;;;;;;;11.57;3.72;;;;;;;25.93;33.99;101140.16;5272339;28;20080;-77
2022/07/20 00:56:42;;;;;;;7.78;2.95;;;;;;;25.72;34.85;101120.28;5272973;28;20157;-78
2022/07/20 00:59:13;;;;;;;10.23;3.30;;;;;;;26.01;33.40;101123.09;5273554;28;20115;-77
2022/07/20 01:01:45;;;;;;;10.70;3.00;;;;;;;26.04;33.03;101144.16;5291208;22;20060;-77
2022/07/20 01:04:16;;;;;;;15.63;3.88;;;;;;;25.78;34.37;101142.00;5261531;28;20410;-77
2022/07/20 01:06:48;;;;;;;11.90;3.42;;;;;;;25.89;33.83;101132.63;5247869;28;20511;-77
2022/07/20 01:09:20;;;;;;;8.68;3.13;;;;;;;25.71;33.42;101118.59;5245633;28;20070;-77
2022/07/20 01:11:52;;;;;;;8.23;3.30;;;;;;;25.70;34.09;101113.44;5254023;28;20021;-77
2022/07/20 01:14:23;;;;;;;10.68;3.35;;;;;;;25.72;33.72;101122.13;5250181;28;20033;-77
2022/07/20 01:16:54;;;;;;;11.57;3.97;;;;;;;25.28;36.22;101124.59;5248986;28;20498;-77
2022/07/20 01:19:26;;;;;;;7.53;3.22;;;;;;;25.38;35.43;101113.59;5247715;28;20037;-77
2022/07/20 01:21:57;;;;;;;13.52;3.30;;;;;;;25.56;34.07;101120.44;5249270;28;20029;-78
2022/07/20 01:24:28;;;;;;;7.88;3.67;;;;;;;25.26;36.29;101121.25;5250178;28;20029;-77
2022/07/20 01:27:00;;;;;;;8.88;3.30;;;;;;;25.40;34.68;101121.47;5249013;28;20031;-77
2022/07/20 01:29:31;;;;;;;14.75;4.10;;;;;;;25.37;35.08;101118.13;5250900;28;20522;-77
2022/07/20 01:32:03;;;;;;;8.93;3.72;;;;;;;24.97;37.05;101117.53;5253501;28;20029;-77
2022/07/20 01:34:34;;;;;;;8.50;4.05;;;;;;;25.09;35.76;101116.06;5248677;28;20076;-77
2022/07/20 01:37:06;;;;;;;12.05;3.40;;;;;;;24.98;36.25;101108.47;5247963;28;20025;-77
2022/07/20 01:39:37;;;;;;;8.07;3.55;;;;;;;25.11;35.68;101114.06;5249144;28;20433;-77
2022/07/20 01:42:09;;;;;;;11.40;3.58;;;;;;;24.98;35.75;101103.94;5250257;28;20098;-77
2022/07/20 01:44:40;;;;;;;10.10;3.75;;;;;;;24.99;36.12;101113.66;5248566;28;20064;-77
2022/07/20 01:47:11;;;;;;;9.88;3.50;;;;;;;24.80;37.36;101109.63;5247130;28;20025;-77
2022/07/20 01:49:43;;;;;;;24.60;4.85;;;;;;;24.84;36.34;101110.06;5251811;28;20079;-77
2022/07/20 01:52:14;;;;;;;7.82;3.10;;;;;;;24.78;37.54;101114.31;5218902;28;20029;-77
2022/07/20 01:54:46;;;;;;;14.13;4.28;;;;;;;24.45;38.63;101107.38;5248294;28;20060;-78
2022/07/20 01:57:17;;;;;;;8.23;3.53;;;;;;;24.81;37.60;101122.00;5248949;28;20017;-77
2022/07/20 01:59:48;;;;;;;6.88;3.30;;;;;;;24.72;37.98;101120.38;5248728;28;20035;-77
2022/07/20 02:02:20;;;;;;;6.22;3.40;;;;;;;24.53;38.43;101133.25;5246078;28;20118;-77
2022/07/20 02:04:51;;;;;;;13.52;3.53;;;;;;;24.31;39.39;101138.41;5247449;28;20101;-77
2022/07/20 02:07:22;;;;;;;12.90;3.20;;;;;;;24.73;36.71;101152.31;5249514;28;20028;-77
2022/07/20 02:09:53;;;;;;;10.13;3.65;;;;;;;24.76;36.35;101170.75;5240805;28;20033;-77
2022/07/20 02:12:25;;;;;;;7.85;3.30;;;;;;;24.78;35.90;101174.06;5248582;28;20530;-78
2022/07/20 02:14:56;;;;;;;10.65;3.78;;;;;;;24.81;35.78;101167.50;5247301;28;20032;-77
2022/07/20 02:17:27;;;;;;;12.18;3.80;;;;;;;24.83;35.92;101176.22;5248051;28;20063;-77
2022/07/20 02:19:59;;;;;;;18.67;5.13;;;;;;;24.82;36.36;101160.31;5248146;28;20032;-77
2022/07/20 02:22:30;;;;;;;7.35;4.57;;;;;;;24.64;37.91;101166.81;5249044;28;20055;-77
2022/07/20 02:25:01;;;;;;;13.98;6.30;;;;;;;24.73;38.21;101159.56;5248117;28;20021;-77
2022/07/20 02:27:33;;;;;;;12.15;6.53;;;;;;;24.70;38.71;101170.63;5246695;28;20029;-77
2022/07/20 02:30:05;;;;;;;13.13;6.88;;;;;;;24.69;39.21;101164.44;5248532;28;20511;-76
2022/07/20 02:32:36;;;;;;;15.80;6.90;;;;;;;24.64;39.78;101161.44;5250629;28;20740;-77
2022/07/20 02:35:07;;;;;;;15.27;7.45;;;;;;;24.41;41.30;101170.28;5245167;28;20028;-76
2022/07/20 02:37:39;;;;;;;14.48;7.57;;;;;;;24.29;41.92;101161.84;5248612;28;20025;-77
2022/07/20 02:40:10;;;;;;;18.35;8.25;;;;;;;24.45;41.45;101168.94;5248490;28;20029;-77
2022/07/20 02:42:42;;;;;;;18.52;9.85;;;;;;;24.33;43.15;101176.50;5249886;28;20020;-76
2022/07/20 02:45:13;;;;;;;19.00;10.90;;;;;;;24.28;44.14;101184.25;5264836;28;20025;-77
2022/07/20 02:47:46;;;;;;;20.67;11.68;;;;;;;24.34;44.74;101180.88;5245551;28;20087;-76
2022/07/20 02:50:18;;;;;;;22.48;13.45;;;;;;;24.20;46.33;101174.44;5241650;28;20033;-76
2022/07/20 02:52:50;;;;;;;26.02;13.43;;;;;;;24.09;47.33;101169.44;5248002;28;20075;-77
2022/07/20 02:55:21;;;;;;;36.58;14.38;;;;;;;24.13;47.47;101171.59;5248730;28;20052;-77
2022/07/20 02:57:52;;;;;;;25.20;12.63;;;;;;;24.18;47.38;101173.75;5247932;28;20043;-77
2022/07/20 03:00:24;;;;;;;31.88;14.95;;;;;;;24.05;47.91;101168.94;5237186;28;20033;-76
2022/07/20 03:02:56;;;;;;;22.45;15.40;;;;;;;23.98;48.82;101176.81;5248614;28;20580;-76
2022/07/20 03:05:28;;;;;;;24.63;14.90;;;;;;;24.05;48.75;101191.16;5248585;28;20025;-77
2022/07/20 03:07:59;;;;;;;22.98;16.23;;;;;;;23.78;50.04;101173.72;5252846;28;20056;-77
2022/07/20 03:10:30;;;;;;;28.15;16.02;;;;;;;23.81;50.54;101176.03;5251654;28;20453;-77
2022/07/20 03:13:02;;;;;;;25.80;16.50;;;;;;;23.83;51.18;101176.72;5251053;28;20119;-77
2022/07/20 03:15:33;;;;;;;25.92;17.50;;;;;;;23.75;51.71;101155.34;5252601;28;20029;-77
2022/07/20 03:18:04;;;;;;;24.33;17.13;;;;;;;23.76;51.96;101165.88;5251718;28;20055;-76
2022/07/20 03:20:36;;;;;;;35.35;19.58;;;;;;;23.71;52.77;101165.56;5251170;28;20114;-77
2022/07/20 03:23:07;;;;;;;28.23;18.45;;;;;;;23.65;52.86;101180.44;5253414;28;20025;-77
2022/07/20 03:25:38;;;;;;;27.17;19.35;;;;;;;23.76;52.95;101192.63;5251224;28;20033;-77
2022/07/20 03:28:09;;;;;;;32.97;19.15;;;;;;;23.59;54.28;101197.16;5251647;28;20052;-77
2022/07/20 03:30:41;;;;;;;36.30;20.58;;;;;;;23.56;54.04;101206.34;5252163;28;20047;-78
2022/07/20 03:33:12;;;;;;;29.05;19.27;;;;;;;23.51;54.77;101216.72;5236579;28;20044;-77
2022/07/20 03:35:43;;;;;;;24.48;19.70;;;;;;;23.42;55.36;101220.41;5251263;28;20403;-77
2022/07/20 03:38:15;;;;;;;33.15;19.88;;;;;;;23.50;55.10;101219.56;5249849;28;20037;-77
2022/07/20 03:40:46;;;;;;;30.52;20.20;;;;;;;23.46;55.58;101227.06;5250153;28;20171;-76
2022/07/20 03:43:17;;;;;;;36.75;21.77;;;;;;;23.33;56.43;101236.44;5250848;28;20021;-77
2022/07/20 03:45:49;;;;;;;31.23;20.85;;;;;;;23.39;56.59;101234.09;5244686;28;20488;-77
2022/07/20 03:48:20;;;;;;;27.17;21.38;;;;;;;23.26;56.67;101237.25;5213216;28;20029;-77
2022/07/20 03:50:52;;;;;;;34.88;23.42;;;;;;;23.32;56.78;101239.25;5253517;28;20032;-77
2022/07/20 03:53:23;;;;;;;35.08;23.52;;;;;;;23.26;57.61;101253.28;5251248;28;20431;-77
2022/07/20 03:55:54;;;;;;;29.27;22.65;;;;;;;23.29;57.99;101268.97;5250700;28;20033;-77
2022/07/20 03:58:26;;;;;;;31.63;24.07;;;;;;;23.25;57.93;101255.13;5251320;28;20036;-77
2022/07/20 04:00:57;;;;;;;34.28;23.38;;;;;;;23.23;58.27;101277.66;5248846;28;20487;-77
2022/07/20 04:03:28;;;;;;;36.25;23.67;;;;;;;23.14;58.67;101275.00;5251274;28;20037;-77
2022/07/20 04:06:00;;;;;;;32.47;22.70;;;;;;;23.19;58.43;101280.69;5252045;28;20058;-77
2022/07/20 04:08:32;;;;;;;32.40;22.85;;;;;;;23.10;58.48;101284.34;5233356;28;20029;-76
2022/07/20 04:11:03;;;;;;;36.17;22.38;;;;;;;23.14;58.61;101285.69;5251079;28;20037;-77
2022/07/20 04:13:34;;;;;;;28.90;21.52;;;;;;;23.02;59.39;101287.00;5247852;28;20507;-77
2022/07/20 04:16:06;;;;;;;32.75;23.17;;;;;;;23.01;59.40;101279.97;5249883;28;20029;-77
2022/07/20 04:18:37;;;;;;;26.87;21.00;;;;;;;23.04;58.80;101283.16;5253004;28;20033;-76
2022/07/20 04:21:09;;;;;;;36.67;22.65;;;;;;;23.14;58.17;101291.03;5252279;28;20055;-76
2022/07/20 04:23:41;;;;;;;27.88;20.35;;;;;;;23.10;59.15;101289.69;5250642;28;20462;-77
2022/07/20 04:26:12;;;;;;;31.48;22.23;;;;;;;23.14;58.16;101291.03;5250660;28;20036;-76
2022/07/20 04:28:43;;;;;;;33.35;21.23;;;;;;;23.05;58.70;101292.84;5248076;28;20033;-76
2022/07/20 04:31:14;;;;;;;36.50;22.17;;;;;;;23.12;58.86;101301.03;5249643;28;20470;-76
2022/07/20 04:33:46;;;;;;;31.02;21.33;;;;;;;23.07;58.69;101300.69;5250524;28;20037;-77
2022/07/20 04:36:17;;;;;;;30.45;20.63;;;;;;;23.11;58.13;101307.34;5249625;28;20028;-76
2022/07/20 04:38:48;;;;;;;25.27;19.30;;;;;;;23.24;57.48;101309.56;5236642;28;20033;-76
2022/07/20 04:41:20;;;;;;;28.70;20.30;;;;;;;23.09;58.00;101304.03;5250531;28;20037;-76
2022/07/20 04:43:51;;;;;;;29.33;20.90;;;;;;;23.16;57.69;101310.38;5250360;28;20691;-76
2022/07/20 04:46:23;;;;;;;31.40;21.05;;;;;;;23.11;58.16;101310.03;5251288;28;20029;-77
2022/07/20 04:48:55;;;;;;;25.95;18.70;;;;;;;23.11;57.67;101312.69;5252630;28;20047;-77
2022/07/20 04:51:26;;;;;;;35.10;19.27;;;;;;;23.18;57.69;101332.44;5251549;28;20033;-78
2022/07/20 04:53:58;;;;;;;27.55;18.45;;;;;;;23.19;57.59;101331.44;5232830;28;20426;-78
2022/07/20 04:56:29;;;;;;;22.17;18.05;;;;;;;23.22;57.01;101332.94;5248778;28;20032;-78
2022/07/20 04:59:00;;;;;;;24.55;18.67;;;;;;;23.16;57.66;101337.09;5250285;28;20605;-78
2022/07/20 05:01:32;;;;;;;26.45;19.17;;;;;;;22.94;57.97;101317.19;5248828;28;20072;-77
2022/07/20 05:04:03;;;;;;;26.00;17.80;;;;;;;23.14;57.09;101325.75;5247872;28;20079;-78
2022/07/20 05:06:34;;;;;;;23.20;17.55;;;;;;;23.14;57.14;101328.44;5253513;28;20471;-77
2022/07/20 05:09:10;;;;;;;22.25;18.13;;;;;;;23.08;57.96;101318.38;5249914;28;20059;-76
2022/07/20 05:11:41;;;;;;;24.40;18.25;;;;;;;23.05;58.02;101324.06;5249111;28;20527;-76
2022/07/20 05:14:12;;;;;;;22.27;17.08;;;;;;;23.14;57.12;101327.59;5255402;28;20029;-76
2022/07/20 05:16:45;;;;;;;27.75;17.80;;;;;;;23.01;57.15;101318.19;5252593;28;20035;-76
2022/07/20 05:19:16;;;;;;;25.00;17.67;;;;;;;23.13;57.00;101332.09;5248650;28;20581;-77
2022/07/20 05:21:47;;;;;;;23.77;17.27;;;;;;;23.07;57.62;101332.75;5252736;28;20032;-76
2022/07/20 05:24:19;;;;;;;22.83;17.05;;;;;;;23.03;57.29;101326.03;5249265;28;20079;-77
2022/07/20 05:26:50;;;;;;;26.00;17.27;;;;;;;23.01;58.08;101341.41;5249731;28;20095;-77
2022/07/20 05:29:21;;;;;;;22.58;16.88;;;;;;;23.08;57.11;101350.44;5248614;28;20062;-76
2022/07/20 05:31:53;;;;;;;23.25;18.17;;;;;;;23.10;57.36;101359.13;5247847;28;20110;-77
2022/07/20 05:34:24;;;;;;;26.33;19.17;;;;;;;23.03;57.48;101369.63;5248713;28;20085;-76
2022/07/20 05:36:55;;;;;;;27.83;16.57;;;;;;;23.08;57.34;101369.13;5248681;28;20032;-77
2022/07/20 05:39:26;;;;;;;24.63;15.80;;;;;;;23.12;57.28;101366.97;5242111;28;20116;-77
2022/07/20 05:41:58;;;;;;;24.63;16.27;;;;;;;23.11;57.30;101370.66;5246669;28;20032;-77
2022/07/20 05:44:29;;;;;;;23.83;16.97;;;;;;;23.19;56.76;101390.22;5248374;28;20028;-77
2022/07/20 05:47:00;;;;;;;20.27;16.23;;;;;;;23.28;56.57;101400.91;5249403;28;20071;-78
2022/07/20 05:49:33;;;;;;;24.73;14.70;;;;;;;23.23;56.08;101392.56;5248726;28;20024;-78
2022/07/20 05:52:04;;;;;;;23.08;14.93;;;;;;;23.31;56.23;101393.41;5251764;28;20029;-77
2022/07/20 05:54:35;;;;;;;25.58;14.80;;;;;;;23.37;56.37;101404.44;5248804;28;20025;-79
2022/07/20 05:57:07;;;;;;;23.50;15.18;;;;;;;23.35;57.06;101412.63;5250452;28;20078;-78
2022/07/20 05:59:38;;;;;;;17.45;14.10;;;;;;;23.37;56.80;101404.44;5243001;28;20031;-77
2022/07/20 06:02:09;;;;;;;23.90;14.05;;;;;;;23.50;55.95;101428.03;5240644;28;20040;-77
2022/07/20 06:04:41;;;;;;;19.08;13.05;;;;;;;23.54;55.13;101429.41;5235750;28;20468;-78
2022/07/20 06:07:12;;;;;;;19.98;13.73;;;;;;;23.42;55.76;101416.34;5222778;28;20640;-77
2022/07/20 06:09:43;;;;;;;19.63;13.30;;;;;;;23.54;55.58;101440.94;5237228;28;20033;-77
2022/07/20 06:12:15;;;;;;;22.05;13.50;;;;;;;23.51;55.67;101443.09;5239024;28;20037;-77
2022/07/20 06:14:46;;;;;;;21.38;13.02;;;;;;;23.53;55.13;101427.72;5240313;28;20029;-88
2022/07/20 06:17:18;;;;;;;23.70;12.55;;;;;;;23.57;55.01;101455.81;5245601;28;20391;-72
2022/07/20 06:19:49;;;;;;;18.92;12.88;;;;;;;23.55;55.02;101458.63;5239508;28;20261;-79
2022/07/20 06:22:20;;;;;;;20.55;12.20;;;;;;;23.49;55.77;101463.81;5224737;28;20074;-83
2022/07/20 06:24:51;;;;;;;18.38;11.73;;;;;;;23.52;55.05;101469.66;5241236;28;20055;-83
2022/07/20 06:27:23;;;;;;;23.77;12.32;;;;;;;23.60;55.13;101478.72;5238509;28;20033;-77
2022/07/20 06:29:54;;;;;;;23.25;12.02;;;;;;;23.58;55.20;101483.38;5236676;28;20033;-78
2022/07/20 06:32:26;;;;;;;19.58;10.57;;;;;;;23.66;55.18;101481.56;5232481;28;20025;-80
2022/07/20 06:34:58;;;;;;;20.83;11.55;;;;;;;23.70;55.24;101490.09;5239804;28;20055;-80
2022/07/20 06:37:29;;;;;;;24.83;12.23;;;;;;;23.71;54.71;101506.97;5238071;28;20670;-78
2022/07/20 06:40:00;;;;;;;21.58;12.93;;;;;;;23.77;54.08;101512.47;5224328;28;20120;-80
2022/07/20 06:42:32;;;;;;;19.80;13.13;;;;;;;23.68;55.62;101517.00;5250289;28;20063;-80
2022/07/20 06:45:04;;;;;;;20.30;12.02;;;;;;;23.79;54.27;101520.38;5244074;28;20095;-80
2022/07/20 06:47:35;;;;;;;22.67;11.98;;;;;;;23.83;54.26;101537.75;5241791;28;20029;-78
2022/07/20 06:50:07;;;;;;;19.67;12.23;;;;;;;23.75;53.96;101537.72;5248398;28;20029;-78
2022/07/20 06:52:38;;;;;;;35.95;13.82;;;;;;;23.68;54.74;101545.56;5228947;28;20117;-79
2022/07/20 06:55:10;;;;;;;20.73;12.55;;;;;;;23.75;54.88;101545.75;5248031;28;20035;-79
2022/07/20 06:57:41;;;;;;;22.63;11.77;;;;;;;23.82;54.35;101557.47;5242309;28;20151;-75
2022/07/20 07:00:13;;;;;;;27.92;11.77;;;;;;;23.83;54.55;101551.13;5238716;28;20061;-75
2022/07/20 07:02:44;;;;;;;24.88;12.32;;;;;;;23.89;54.12;101555.81;5221807;28;20037;-75
2022/07/20 07:05:15;;;;;;;19.17;12.23;;;;;;;23.97;53.88;101552.31;5225894;28;20311;-75
2022/07/20 07:07:47;;;;;;;25.50;11.63;;;;;;;23.99;53.91;101550.31;5242865;28;20041;-75
2022/07/20 07:10:18;;;;;;;19.35;11.10;;;;;;;24.16;54.05;101551.19;5223703;28;20079;-75
2022/07/20 07:12:50;;;;;;;23.63;10.63;;;;;;;24.28;53.46;101537.50;5233392;28;20063;-73
2022/07/20 07:15:21;;;;;;;17.23;10.82;;;;;;;24.26;55.11;101531.50;5232293;28;20040;-72
2022/07/20 07:17:52;;;;;;;19.80;12.18;;;;;;;24.37;52.89;101538.34;5226148;28;20086;-74
2022/07/20 07:20:24;;;;;;;17.23;11.30;;;;;;;24.58;53.19;101535.16;5242468;28;20079;-75
2022/07/20 07:22:55;;;;;;;19.35;12.82;;;;;;;25.04;51.55;101543.63;5245990;28;20036;-74
2022/07/20 07:25:26;;;;;;;20.25;11.02;;;;;;;25.22;50.91;101554.16;5246091;28;20083;-74
2022/07/20 07:27:58;;;;;;;16.83;10.18;;;;;;;25.26;50.93;101555.47;5241004;28;20079;-73
2022/07/20 07:30:29;;;;;;;25.50;10.68;;;;;;;25.22;51.13;101571.03;5242923;28;20104;-74
2022/07/20 07:33:00;;;;;;;20.92;9.70;;;;;;;25.15;50.67;101577.28;5244558;28;20090;-74
2022/07/20 07:35:31;;;;;;;17.75;9.90;;;;;;;25.05;50.60;101580.97;5243118;28;20033;-74
2022/07/20 07:38:03;;;;;;;14.82;9.88;;;;;;;25.08;50.63;101590.53;5243019;28;20036;-75
2022/07/20 07:40:34;;;;;;;20.40;10.63;;;;;;;25.11;51.13;101596.38;5248486;28;20021;-74
2022/07/20 07:43:05;;;;;;;18.50;11.15;;;;;;;25.11;51.05;101595.53;5238983;28;20025;-74
2022/07/20 07:45:37;;;;;;;16.17;9.40;;;;;;;25.21;51.64;101603.38;5237505;28;20489;-74
2022/07/20 07:48:10;;;;;;;13.73;9.02;;;;;;;25.22;50.97;101611.25;5237362;28;20441;-74
2022/07/20 07:50:43;;;;;;;17.08;10.48;;;;;;;25.31;50.87;101612.06;5245289;28;20086;-74
2022/07/20 07:53:15;;;;;;;18.20;9.57;;;;;;;25.29;50.67;101618.63;5229872;28;20040;-73
2022/07/20 07:55:46;;;;;;;15.90;9.45;;;;;;;25.38;50.58;101614.88;5232355;28;20482;-75
2022/07/20 07:58:18;;;;;;;15.48;9.07;;;;;;;25.37;50.00;101611.41;5239667;28;20116;-73
2022/07/20 08:00:49;;;;;;;14.88;9.32;;;;;;;25.55;50.07;101618.38;5246544;28;20475;-73
2022/07/20 08:03:22;;;;;;;19.40;9.00;;;;;;;25.53;48.35;101603.47;5247325;28;20065;-73
2022/07/20 08:05:53;;;;;;;16.25;9.35;;;;;;;25.64;48.41;101589.69;5246672;28;20036;-73
2022/07/20 08:08:24;;;;;;;14.98;8.00;;;;;;;25.65;48.14;101569.91;5236614;28;20095;-73
2022/07/20 08:10:57;;;;;;;17.27;7.47;;;;;;;25.79;48.38;101572.84;5229514;28;20597;-73
2022/07/20 08:13:28;;;;;;;17.20;7.13;;;;;;;25.85;47.70;101569.50;5238612;28;20037;-73
2022/07/20 08:16:00;;;;;;;11.38;7.03;;;;;;;25.91;47.84;101562.56;5247729;28;20039;-73
2022/07/20 08:18:31;;;;;;;17.92;7.30;;;;;;;26.05;47.35;101559.13;5239195;28;20029;-73
2022/07/20 08:21:02;;;;;;;16.00;8.23;;;;;;;26.13;47.78;101549.34;5245830;28;20033;-73
2022/07/20 08:23:33;;;;;;;14.63;7.47;;;;;;;26.28;48.16;101566.34;5248510;28;20158;-73
2022/07/20 08:26:05;;;;;;;16.67;8.07;;;;;;;26.26;47.89;101565.69;5246928;28;20029;-73
2022/07/20 08:28:36;;;;;;;11.85;7.63;;;;;;;26.28;48.20;101569.03;5222341;28;20056;-73
2022/07/20 08:31:08;;;;;;;13.93;8.45;;;;;;;26.08;47.60;101582.06;5240118;28;20040;-73
2022/07/20 08:33:39;;;;;;;12.02;7.88;;;;;;;26.17;47.24;101594.44;5246819;28;20064;-73
2022/07/20 08:36:10;;;;;;;16.55;8.93;;;;;;;26.13;47.70;101597.66;5242280;28;20025;-74
2022/07/20 08:38:42;;;;;;;23.75;9.15;;;;;;;26.19;47.69;101596.94;5240373;28;20475;-73
2022/07/20 08:41:15;;;;;;;16.60;8.23;;;;;;;26.22;47.51;101616.22;5241028;28;20112;-73
2022/07/20 08:43:46;;;;;;;13.70;8.27;;;;;;;26.25;49.25;101606.94;5246382;28;20033;-74
2022/07/20 08:46:18;;;;;;;15.02;8.10;;;;;;;26.40;49.12;101593.63;5239048;28;20241;-73
2022/07/20 08:48:51;;;;;;;17.00;8.82;;;;;;;26.56;48.42;101599.88;5236793;28;20037;-73
2022/07/20 08:51:22;;;;;;;18.15;8.05;;;;;;;26.66;47.29;101591.56;5240334;28;20028;-73
2022/07/20 08:53:56;;;;;;;17.20;8.32;;;;;;;26.63;46.81;101597.31;5244271;28;20021;-74
2022/07/20 08:56:27;;;;;;;14.27;9.63;;;;;;;26.72;46.38;101596.22;5247252;28;20120;-73
2022/07/20 08:58:58;;;;;;;13.07;8.13;;;;;;;26.60;48.08;101579.69;5243668;28;20535;-73
2022/07/20 09:01:30;;;;;;;14.45;8.45;;;;;;;26.67;47.19;101566.38;5243809;28;20041;-74
2022/07/20 09:04:05;;;;;;;15.65;8.68;;;;;;;26.60;46.33;101546.63;5240669;28;20025;-74
2022/07/20 09:06:49;;;;;;;10.48;8.50;;;;;;;26.56;47.80;101551.53;5243002;28;20527;-73
2022/07/20 09:09:21;;;;;;;15.13;8.55;;;;;;;26.43;47.09;101577.16;5238212;28;20033;-74
2022/07/20 09:11:52;;;;;;;11.70;8.02;;;;;;;26.47;47.15;101588.38;5244320;28;20090;-73
2022/07/20 09:14:43;;;;;;;13.13;8.15;;;;;;;26.56;47.19;101603.41;5230431;28;20029;-73
2022/07/20 09:17:19;;;;;;;15.57;7.72;;;;;;;26.81;47.87;101605.88;5241472;28;20039;-70
2022/07/20 09:19:59;;;;;;;22.63;8.57;;;;;;;26.75;47.16;101670.25;5218085;28;20078;-75
2022/07/20 09:22:36;;;;;;;21.35;8.95;;;;;;;26.70;46.75;101678.84;5242918;28;20106;-75
2022/07/20 09:25:14;;;;;;;15.55;8.23;;;;;;;26.50;46.62;101679.31;5244547;28;20480;-75
2022/07/20 09:27:45;;;;;;;16.20;8.55;;;;;;;26.54;46.81;101686.00;5234695;28;20052;-75
2022/07/20 09:30:17;;;;;;;18.27;8.93;;;;;;;26.61;46.99;101685.28;5239989;28;20036;-75
2022/07/20 09:32:57;;;;;;;14.98;9.02;;;;;;;26.78;46.85;101681.47;5238259;28;20045;-75
2022/07/20 09:35:34;;;;;;;20.60;9.50;;;;;;;27.22;47.78;101664.81;5231824;28;20040;-75
2022/07/20 09:38:07;;;;;;;14.85;8.43;;;;;;;27.04;45.88;101658.75;5237814;28;20151;-75
2022/07/20 09:40:46;;;;;;;14.95;7.43;;;;;;;27.15;45.82;101664.72;5244082;28;20051;-75
2022/07/20 09:43:29;;;;;;;13.63;8.73;;;;;;;27.33;45.54;101660.84;5246020;28;20075;-75
2022/07/20 09:46:17;;;;;;;10.10;8.10;;;;;;;27.36;45.13;101657.78;5245002;28;20029;-75
2022/07/20 09:48:52;;;;;;;17.92;9.07;;;;;;;27.34;45.47;101657.13;5220079;28;20122;-74
2022/07/20 09:51:32;;;;;;;14.52;7.70;;;;;;;27.48;44.47;101648.22;5229850;28;20032;-75
2022/07/20 09:54:12;;;;;;;16.52;8.63;;;;;;;27.53;44.39;101639.59;5246686;28;20522;-75
2022/07/20 09:56:46;;;;;;;13.63;8.45;;;;;;;27.76;43.80;101633.28;5247091;28;20384;-74
2022/07/20 09:59:19;;;;;;;16.20;8.25;;;;;;;27.84;44.16;101629.66;5239623;28;20021;-72
2022/07/20 10:01:52;;;;;;;;;;;;;;;28.09;44.25;101648.16;5235491;28;20041;-72
2022/07/20 10:04:24;;;;;;;14.30;7.03;;;;;;;28.04;43.77;101640.66;5236193;28;20402;-72
2022/07/20 10:06:55;;;;;;;12.65;7.20;;;;;;;28.06;43.68;101648.53;5227730;28;20132;-72
2022/07/20 10:09:26;;;;;;;12.35;7.22;;;;;;;27.97;44.21;101659.44;5232487;28;20039;-72
2022/07/20 10:11:58;;;;;;;17.42;7.90;;;;;;;28.02;44.04;101664.22;5226453;28;20017;-73
2022/07/20 10:14:32;;;;;;;12.63;7.78;;;;;;;28.22;43.39;101674.41;5224679;28;20916;-74
2022/07/20 10:17:03;;;;;;;12.10;6.85;;;;;;;28.29;43.79;101666.38;5244125;28;20017;-71
2022/07/20 10:19:46;;;;;;;10.25;7.22;;;;;;;28.20;43.02;101671.91;5249324;28;20032;-72
2022/07/20 10:22:17;;;;;;;13.70;7.50;;;;;;;28.03;43.34;101655.16;5249037;28;20041;-72
2022/07/20 10:25:25;;;;;;;14.60;7.93;;;;;;;28.32;43.58;101655.22;5249946;28;20040;-72
2022/07/20 10:28:22;;;;;;;12.05;7.20;;;;;;;28.01;43.32;101644.53;5189203;28;20052;-73
2022/07/20 10:31:01;;;;;;;12.57;7.70;;;;;;;27.98;43.38;101652.19;5241686;28;20037;-74
2022/07/20 10:33:34;;;;;;;13.52;7.38;;;;;;;28.22;43.54;101642.09;5250511;28;20089;-73
2022/07/20 10:36:42;;;;;;;12.13;7.93;;;;;;;28.26;43.34;101654.13;5219239;28;20022;-75
2022/07/20 10:39:49;;;;;;;13.98;7.65;;;;;;;28.43;43.32;101641.28;5238003;28;20037;-74
2022/07/20 10:42:38;;;;;;;11.05;5.78;;;;;;;28.47;43.17;101641.72;5130281;29;20023;-74
2022/07/20 10:45:27;;;;;;;11.88;6.97;;;;;;;28.59;42.36;101642.06;5239564;28;20041;-73
2022/07/20 10:48:14;;;;;;;14.45;6.65;;;;;;;28.78;42.28;101634.31;5245044;28;20025;-73
2022/07/20 10:50:55;;;;;;;13.63;6.47;;;;;;;28.91;41.76;101639.81;5244706;28;20033;-73
2022/07/20 10:53:28;;;;;;;15.63;6.45;;;;;;;29.01;40.64;101638.69;5243849;28;20029;-73
2022/07/20 10:56:03;;;;;;;13.23;6.35;;;;;;;29.13;40.60;101630.88;5240142;28;20041;-73
2022/07/20 10:58:37;;;;;;;16.40;8.23;;;;;;;29.52;40.21;101647.47;5245778;28;20075;-73
2022/07/20 11:01:11;;;;;;;12.30;6.82;;;;;;;29.58;40.29;101652.91;5244114;28;20051;-74
2022/07/20 11:03:48;;;;;;;10.63;5.78;;;;;;;29.91;39.70;101654.09;5228439;28;20061;-74
2022/07/20 11:06:23;;;;;;;14.55;6.20;;;;;;;29.93;39.23;101654.75;5230536;28;21606;-76
2022/07/20 11:08:58;;;;;;;8.82;5.93;;;;;;;29.94;39.41;101659.09;5244464;28;20542;-74
2022/07/20 11:11:34;;;;;;;9.77;5.95;;;;;;;30.13;39.50;101653.94;5247545;28;20029;-73
2022/07/20 11:14:06;;;;;;;19.02;6.88;;;;;;;30.36;39.05;101655.47;5232073;28;20111;-74
2022/07/20 11:16:38;;;;;;;13.57;6.83;;;;;;;30.46;38.51;101648.84;5233733;28;20120;-74
2022/07/20 11:19:10;;;;;;;11.07;5.97;;;;;;;30.74;38.11;101643.22;5250678;28;20025;-80
2022/07/20 11:21:43;;;;;;;11.95;5.97;;;;;;;30.49;37.23;101638.47;5242382;28;20025;-72
2022/07/20 11:24:23;;;;;;;11.20;5.88;;;;;;;30.64;37.83;101640.94;5236611;28;20047;-72
2022/07/20 11:26:55;;;;;;;12.80;4.90;;;;;;;30.75;37.49;101642.19;5244588;28;20025;-73
2022/07/20 11:29:27;;;;;;;14.02;5.82;;;;;;;30.83;37.69;101637.63;5250393;28;20365;-76
2022/07/20 11:32:09;;;;;;;15.18;5.72;;;;;;;31.11;38.07;101626.56;5251333;28;20079;-73
2022/07/20 11:34:51;;;;;;;12.73;4.53;;;;;;;31.13;36.48;101638.00;5234594;28;20051;-74
2022/07/20 11:37:22;;;;;;;8.88;4.18;;;;;;;30.97;34.82;101633.88;5240192;28;20151;-72
2022/07/20 11:39:53;;;;;;;6.85;4.18;;;;;;;31.22;35.67;101635.91;5246378;28;20739;-72
2022/07/20 11:42:25;;;;;;;7.68;4.53;;;;;;;31.18;35.28;101623.00;5249709;28;20071;-73